Time;durP1;ratioP1;P1;durP2;ratioP2;P2;SDS_P1;SDS_P2;PMS_P1;PMS_P2;Temp;Humidity;BMP_temperature;BMP_pressure;BME280_temperature;BME280_humidity;BME280_pressure;Samples;Min_cycle;Max_cycle;Signal;HPM_P1;HPM_P2
2023/03/27 00:00:11;;;;;;;;;;;;;;;9.50;85.82;97972.38;5114237;28;20350;-66
2023/03/27 00:02:40;;;;;;;;;;;;;;;9.46;86.70;97966.50;5113905;28;20002;-66
2023/03/27 00:05:09;;;;;;;;;;;;;;;9.49;86.83;97963.91;5114074;28;19920;-66
2023/03/27 00:07:40;;;;;;;;;;;;;;;9.49;86.98;97965.59;5113704;28;20014;-66
2023/03/27 00:10:09;;;;;;;;;;;;;;;9.54;86.27;97956.16;5113825;28;19926;-66
2023/03/27 00:12:38;;;;;;;;;;;;;;;9.56;86.91;97952.69;5114430;28;19958;-66
2023/03/27 00:15:07;;;;;;;;;;;;;;;9.55;86.40;97950.19;5113757;28;20006;-66
2023/03/27 00:17:36;;;;;;;;;;;;;;;9.52;86.93;97947.72;5113732;28;19919;-66
2023/03/27 00:20:05;;;;;;;;;;;;;;;9.46;86.82;97935.97;5113707;28;19949;-66
2023/03/27 00:22:34;;;;;;;;;;;;;;;9.40;86.58;97936.97;5113716;28;19949;-66
2023/03/27 00:25:05;;;;;;;;;;;;;;;9.36;86.78;97931.97;5115999;28;20011;-66
2023/03/27 00:27:33;;;;;;;;;;;;;;;9.25;86.42;97929.69;5117293;28;19919;-66
2023/03/27 00:30:05;;;;;;;;;;;;;;;9.19;86.33;97932.38;5116102;28;19969;-66
2023/03/27 00:32:35;;;;;;;;;;;;;;;9.17;86.44;97929.03;5117601;28;20027;-66
2023/03/27 00:35:03;;;;;;;;;;;;;;;9.17;86.56;97923.09;5116227;28;20326;-66
2023/03/27 00:37:32;;;;;;;;;;;;;;;9.17;87.04;97916.28;5117074;28;19923;-66
2023/03/27 00:40:00;;;;;;;;;;;;;;;9.23;87.23;97916.16;5117002;28;19973;-66
2023/03/27 00:42:30;;;;;;;;;;;;;;;9.30;86.95;97897.31;5117392;28;20014;-66
2023/03/27 00:44:59;;;;;;;;;;;;;;;9.25;87.34;97904.25;5116885;28;19919;-66
2023/03/27 00:47:31;;;;;;;;;;;;;;;9.22;87.08;97901.75;5117246;28;19935;-66
2023/03/27 00:50:02;;;;;;;;;;;;;;;9.25;87.53;97900.84;5117153;28;20031;-66
2023/03/27 00:52:31;;;;;;;;;;;;;;;9.30;86.98;97889.69;5116853;28;19926;-66
2023/03/27 00:55:01;;;;;;;;;;;;;;;9.32;86.80;97887.09;5116705;28;19920;-66
2023/03/27 00:57:31;;;;;;;;;;;;;;;9.23;86.95;97878.00;5116765;28;20006;-66
2023/03/27 01:00:09;;;;;;;;;;;;;;;9.21;86.94;97879.72;5116722;28;19920;-66
2023/03/27 01:02:37;;;;;;;;;;;;;;;9.18;87.05;97879.81;5115733;28;19930;-66
2023/03/27 01:05:08;;;;;;;;;;;;;;;9.11;86.55;97880.00;5116505;28;19923;-66
2023/03/27 01:07:38;;;;;;;;;;;;;;;9.10;87.03;97881.69;5115684;28;19919;-66
2023/03/27 01:10:11;;;;;;;;;;;;;;;9.08;87.46;97875.81;5116430;28;19919;-66
2023/03/27 01:12:45;;;;;;;;;;;;;;;9.02;86.11;97873.41;5115186;28;19919;-66
2023/03/27 01:15:30;;;;;;;;;;;;;;;9.02;86.82;97873.41;5115287;28;19920;-66
2023/03/27 01:18:07;;;;;;;;;;;;;;;8.97;87.09;97867.59;5115189;28;19927;-66
2023/03/27 01:20:46;;;;;;;;;;;;;;;9.00;86.51;97870.06;5116521;28;20262;-66
2023/03/27 01:23:26;;;;;;;;;;;;;;;9.06;87.80;97859.75;5116287;28;19920;-66
2023/03/27 01:26:17;;;;;;;;;;;;;;;8.97;86.94;97865.06;5116037;28;19943;-66
2023/03/27 01:29:10;;;;;;;;;;;;;;;8.90;87.23;97863.50;5116174;28;19919;-66
2023/03/27 01:31:50;;;;;;;;;;;;;;;8.85;86.93;97855.16;5116024;28;19919;-66
2023/03/27 01:34:29;;;;;;;;;;;;;;;8.88;87.37;97849.19;5116060;28;19920;-66
2023/03/27 01:37:08;;;;;;;;;;;;;;;8.86;87.27;97846.66;5115071;28;20365;-66
2023/03/27 01:39:48;;;;;;;;;;;;;;;8.86;86.98;97844.09;5115373;28;19927;-66
2023/03/27 01:42:19;;;;;;;;;;;;;;;8.88;87.00;97850.00;5115231;28;19959;-66
2023/03/27 01:44:51;;;;;;;;;;;;;;;8.83;86.79;97856.06;5114633;28;19930;-66
2023/03/27 01:47:25;;;;;;;;;;;;;;;8.82;87.44;97860.31;5114555;28;19924;-66
2023/03/27 01:49:57;;;;;;;;;;;;;;;8.82;86.89;97864.56;5116148;28;19959;-66
2023/03/27 01:52:29;;;;;;;;;;;;;;;8.83;86.41;97867.06;5115686;28;19955;-66
2023/03/27 01:55:03;;;;;;;;;;;;;;;8.83;86.67;97861.97;5115648;28;19962;-66
2023/03/27 01:57:38;;;;;;;;;;;;;;;8.81;87.49;97858.63;5114724;28;20266;-66
2023/03/27 02:00:22;;;;;;;;;;;;;;;8.76;87.63;97850.28;5115829;28;20275;-66
2023/03/27 02:03:08;;;;;;;;;;;;;;;8.66;86.47;97859.00;5115418;28;19924;-66
2023/03/27 02:05:40;;;;;;;;;;;;;;;8.51;87.38;97844.09;5115340;28;19966;-66
2023/03/27 02:08:11;;;;;;;;;;;;;;;8.56;86.75;97832.09;5114220;28;19927;-66
2023/03/27 02:10:47;;;;;;;;;;;;;;;8.60;86.35;97831.16;5114126;28;19996;-66
2023/03/27 02:13:20;;;;;;;;;;;;;;;8.55;87.20;97840.59;5114040;28;19920;-66
2023/03/27 02:15:50;;;;;;;;;;;;;;;8.56;86.92;97838.03;5115515;28;19920;-66
2023/03/27 02:18:22;;;;;;;;;;;;;;;8.59;87.13;97843.03;5114156;28;20013;-66
2023/03/27 02:20:51;;;;;;;;;;;;;;;8.62;87.31;97847.22;5114256;28;20025;-66
2023/03/27 02:23:21;;;;;;;;;;;;;;;8.65;87.27;97848.00;5113996;28;20365;-66
2023/03/27 02:25:51;;;;;;;;;;;;;;;8.60;87.15;97839.63;5115196;28;19920;-66
2023/03/27 02:28:32;;;;;;;;;;;;;;;8.57;87.05;97838.84;5115012;28;19920;-66
2023/03/27 02:31:06;;;;;;;;;;;;;;;8.59;87.53;97832.06;5113845;28;20002;-66
2023/03/27 02:34:02;;;;;;;;;;;;;;;8.59;87.40;97832.84;5113756;28;19972;-66
2023/03/27 02:36:39;;;;;;;;;;;;;;;8.58;87.36;97832.91;5115011;28;19920;-66
2023/03/27 02:39:13;;;;;;;;;;;;;;;8.63;87.41;97831.09;5115626;28;19929;-66
2023/03/27 02:41:46;;;;;;;;;;;;;;;8.66;87.00;97825.94;5113748;28;19919;-66
2023/03/27 02:44:31;;;;;;;;;;;;;;;8.66;87.96;97824.22;5115102;28;19998;-66
2023/03/27 02:47:06;;;;;;;;;;;;;;;8.70;87.73;97819.91;5114257;28;19920;-66
2023/03/27 02:49:39;;;;;;;;;;;;;;;8.70;87.57;97809.75;5113593;28;19923;-66
2023/03/27 02:52:10;;;;;;;;;;;;;;;8.71;87.64;97811.41;5114761;28;19972;-66
2023/03/27 02:54:41;;;;;;;;;;;;;;;8.71;87.56;97811.41;5096445;28;20339;-66
2023/03/27 02:57:13;;;;;;;;;;;;;;;8.72;88.09;97805.44;5113717;28;20022;-66
2023/03/27 03:00:24;;;;;;;;;;;;;;;8.71;87.10;97802.06;5114489;28;19931;-66
2023/03/27 03:03:07;;;;;;;;;;;;;;;8.70;87.13;97794.47;5114919;28;19943;-66
2023/03/27 03:05:36;;;;;;;;;;;;;;;8.71;87.65;97796.13;5114487;28;19920;-66
2023/03/27 03:08:09;;;;;;;;;;;;;;;8.69;87.27;97793.66;5114363;28;20019;-66
2023/03/27 03:10:43;;;;;;;;;;;;;;;8.68;87.55;97783.53;5114844;28;19919;-66
2023/03/27 03:13:15;;;;;;;;;;;;;;;8.73;87.18;97784.25;5114474;28;19958;-66
2023/03/27 03:15:44;;;;;;;;;;;;;;;8.74;87.41;97780.81;5113247;28;20392;-66
2023/03/27 03:18:14;;;;;;;;;;;;;;;8.77;87.68;97785.84;5114407;28;19927;-66
2023/03/27 03:20:44;;;;;;;;;;;;;;;8.72;87.56;97783.41;5113423;28;19942;-66
2023/03/27 03:23:13;;;;;;;;;;;;;;;8.70;88.49;97772.44;5114651;28;20325;-66
2023/03/27 03:25:43;;;;;;;;;;;;;;;8.75;87.97;97777.41;5112748;28;20417;-66
2023/03/27 03:28:12;;;;;;;;;;;;;;;8.78;87.88;97777.34;5113173;28;20445;-66
2023/03/27 03:30:44;;;;;;;;;;;;;;;8.83;88.32;97770.41;5114220;28;19959;-66
2023/03/27 03:33:14;;;;;;;;;;;;;;;8.88;87.53;97765.25;5114270;28;19926;-66
2023/03/27 03:35:45;;;;;;;;;;;;;;;8.90;87.90;97760.94;5114128;28;20414;-66
2023/03/27 03:38:25;;;;;;;;;;;;;;;8.89;87.92;97765.19;5114551;28;20007;-66
2023/03/27 03:40:55;;;;;;;;;;;;;;;8.84;87.27;97772.09;5113660;28;19919;-66
2023/03/27 03:43:25;;;;;;;;;;;;;;;8.79;87.51;97781.53;5112982;28;19973;-66
2023/03/27 03:45:57;;;;;;;;;;;;;;;8.79;87.74;97784.09;5114107;28;20014;-66
2023/03/27 03:48:26;;;;;;;;;;;;;;;8.80;87.91;97774.75;5114066;28;19920;-66
2023/03/27 03:50:54;;;;;;;;;;;;;;;8.83;88.24;97772.16;5113499;28;20305;-66
2023/03/27 03:53:23;;;;;;;;;;;;;;;8.83;87.94;97765.31;5113501;28;20019;-66
2023/03/27 03:55:52;;;;;;;;;;;;;;;8.77;87.27;97756.16;5113153;28;20357;-66
2023/03/27 03:58:21;;;;;;;;;;;;;;;8.77;88.34;97757.88;5114018;28;19927;-66
2023/03/27 04:01:07;;;;;;;;;;;;;;;8.76;88.25;97748.56;5118018;28;19955;-66
2023/03/27 04:03:42;;;;;;;;;;;;;;;8.72;88.15;97752.06;5117943;28;19919;-66
2023/03/27 04:06:11;;;;;;;;;;;;;;;8.71;87.78;97746.13;5116919;28;19972;-66
2023/03/27 04:08:40;;;;;;;;;;;;;;;8.70;87.99;97739.38;5117784;28;19920;-66
2023/03/27 04:11:26;;;;;;;;;;;;;;;8.72;87.44;97739.34;5118128;28;19919;-66
2023/03/27 04:14:06;;;;;;;;;;;;;;;8.66;87.67;97742.03;5118024;28;20085;-65
2023/03/27 04:16:41;;;;;;;;;;;;;;;8.61;87.32;97743.84;5117984;28;19919;-66
2023/03/27 04:19:21;;;;;;;;;;;;;;;8.65;87.48;97750.53;5118055;28;19919;-66
2023/03/27 04:22:00;;;;;;;;;;;;;;;8.69;87.29;97752.97;5117610;28;19919;-66
2023/03/27 04:24:33;;;;;;;;;;;;;;;8.69;87.01;97757.19;5117564;27;19923;-66
2023/03/27 04:27:02;;;;;;;;;;;;;;;8.72;87.40;97767.31;5116291;28;20383;-66
2023/03/27 04:29:42;;;;;;;;;;;;;;;8.70;87.67;97769.06;5117695;28;19920;-66
2023/03/27 04:32:25;;;;;;;;;;;;;;;8.69;86.96;97767.38;5117387;28;19920;-66
2023/03/27 04:35:05;;;;;;;;;;;;;;;8.68;86.49;97760.63;5117410;28;20006;-66
2023/03/27 04:37:46;;;;;;;;;;;;;;;8.68;87.13;97755.56;5117192;28;19919;-66
2023/03/27 04:40:33;;;;;;;;;;;;;;;8.71;87.01;97755.44;5117269;27;20361;-66
2023/03/27 04:43:02;;;;;;;;;;;;;;;8.70;87.07;97748.72;5115918;28;19919;-66
2023/03/27 04:45:33;;;;;;;;;;;;;;;8.70;86.57;97743.63;5117095;28;20400;-66
2023/03/27 04:48:06;;;;;;;;;;;;;;;8.67;87.15;97752.16;5117274;28;19963;-66
2023/03/27 04:50:36;;;;;;;;;;;;;;;8.70;86.33;97751.25;5115891;28;20266;-66
2023/03/27 04:53:05;;;;;;;;;;;;;;;8.75;86.84;97754.53;5117508;28;19924;-66
2023/03/27 04:55:39;;;;;;;;;;;;;;;8.77;85.84;97765.50;5116840;28;19927;-66
2023/03/27 04:58:09;;;;;;;;;;;;;;;8.75;85.98;97772.31;5116773;28;19931;-64
2023/03/27 05:00:38;;;;;;;;;;;;;;;8.72;86.34;97772.41;5116025;28;20317;-66
2023/03/27 05:03:12;;;;;;;;;;;;;;;8.74;86.09;97778.28;5116826;28;20305;-66
2023/03/27 05:06:07;;;;;;;;;;;;;;;8.69;85.77;97777.53;5114212;28;19926;-66
2023/03/27 05:08:37;;;;;;;;;;;;;;;8.67;86.49;97780.13;5116889;28;20274;-66
2023/03/27 05:11:06;;;;;;;;;;;;;;;8.66;85.74;97782.72;5114839;28;19920;-66
2023/03/27 05:13:43;;;;;;;;;;;;;;;8.62;85.78;97768.41;5115397;28;19919;-66
2023/03/27 05:16:16;;;;;;;;;;;;;;;8.60;85.97;97767.59;5115589;28;19958;-66
2023/03/27 05:18:50;;;;;;;;;;;;;;;8.64;85.62;97775.13;5115282;28;19927;-66
2023/03/27 05:21:19;;;;;;;;;;;;;;;8.65;86.45;97781.03;5115198;28;20369;-66
2023/03/27 05:23:48;;;;;;;;;;;;;;;8.64;86.44;97774.28;5115174;28;19927;-66
2023/03/27 05:26:22;;;;;;;;;;;;;;;8.65;86.21;97781.03;5116269;28;19919;-66
2023/03/27 05:28:57;;;;;;;;;;;;;;;8.72;86.39;97783.41;5116206;28;19927;-66
2023/03/27 05:31:26;;;;;;;;;;;;;;;8.79;85.93;97781.53;5115454;28;19919;-65
2023/03/27 05:34:18;;;;;;;;;;;;;;;8.80;85.73;97785.78;5108670;28;19919;-65
2023/03/27 05:36:48;;;;;;;;;;;;;;;8.84;85.78;97782.28;5115542;28;19919;-65
2023/03/27 05:39:17;;;;;;;;;;;;;;;8.89;85.90;97779.63;5115419;28;20284;-64
2023/03/27 05:41:47;;;;;;;;;;;;;;;8.95;85.77;97784.56;5115988;28;19926;-65
2023/03/27 05:44:24;;;;;;;;;;;;;;;8.99;85.38;97791.22;5115987;28;19920;-65
2023/03/27 05:46:52;;;;;;;;;;;;;;;8.99;84.65;97789.53;5115092;28;19927;-65
2023/03/27 05:49:30;;;;;;;;;;;;;;;9.00;85.87;97791.19;5114836;28;20020;-64
2023/03/27 05:52:09;;;;;;;;;;;;;;;9.08;85.04;97791.00;5116106;28;19989;-66
2023/03/27 05:54:38;;;;;;;;;;;;;;;9.05;84.78;97797.00;5115703;28;19920;-65
2023/03/27 05:57:10;;;;;;;;;;;;;;;9.00;84.75;97792.91;5115940;28;20323;-65
2023/03/27 05:59:41;;;;;;;;;;;;;;;9.01;85.11;97790.31;5115781;28;20389;-65
2023/03/27 06:02:18;;;;;;;;;;;;;;;9.03;84.81;97793.66;5115802;28;20377;-65
2023/03/27 06:05:03;;;;;;;;;;;;;;;9.02;85.01;97797.06;5115543;28;19924;-65
2023/03/27 06:07:38;;;;;;;;;;;;;;;9.07;84.94;97795.25;5115359;28;20021;-65
2023/03/27 06:10:12;;;;;;;;;;;;;;;9.07;84.70;97790.16;5115490;28;19920;-65
2023/03/27 06:12:59;;;;;;;;;;;;;;;9.11;85.38;97796.03;5115338;28;20389;-65
2023/03/27 06:15:35;;;;;;;;;;;;;;;9.15;85.15;97793.34;5114486;28;20311;-65
2023/03/27 06:18:24;;;;;;;;;;;;;;;9.18;85.49;97798.38;5114891;28;20007;-65
2023/03/27 06:20:54;;;;;;;;;;;;;;;9.15;85.15;97795.06;5113880;28;19973;-65
2023/03/27 06:23:23;;;;;;;;;;;;;;;9.17;84.62;97796.69;5113734;28;20010;-65
2023/03/27 06:25:52;;;;;;;;;;;;;;;9.19;85.23;97805.13;5113758;28;20010;-65
2023/03/27 06:28:24;;;;;;;;;;;;;;;9.22;84.23;97804.19;5115040;28;19933;-65
2023/03/27 06:30:52;;;;;;;;;;;;;;;9.26;83.77;97805.81;5113871;28;19919;-65
2023/03/27 06:33:31;;;;;;;;;;;;;;;9.32;84.44;97806.50;5114901;28;20062;-65
2023/03/27 06:36:06;;;;;;;;;;;;;;;9.31;83.65;97804.81;5114259;28;19981;-64
2023/03/27 06:38:36;;;;;;;;;;;;;;;9.34;83.39;97808.97;5112430;28;20319;-64
2023/03/27 06:41:05;;;;;;;;;;;;;;;9.38;83.57;97806.31;5113694;28;19920;-64
2023/03/27 06:43:45;;;;;;;;;;;;;;;9.42;83.30;97807.91;5112480;28;19919;-64
2023/03/27 06:46:27;;;;;;;;;;;;;;;9.44;82.66;97813.81;5104966;28;20011;-65
2023/03/27 06:49:22;;;;;;;;;;;;;;;9.48;82.43;97811.19;5094572;28;20393;-64
2023/03/27 06:51:52;;;;;;;;;;;;;;;9.50;81.61;97814.53;5094794;28;19926;-64
2023/03/27 06:54:23;;;;;;;;;;;;;;;9.52;81.54;97813.59;5093084;28;19924;-64
2023/03/27 06:56:54;;;;;;;;;;;;;;;9.56;81.12;97809.25;5094158;28;19973;-65
2023/03/27 06:59:23;;;;;;;;;;;;;;;9.62;80.86;97814.19;5092933;28;19920;-64
2023/03/27 07:01:57;;;;;;;;;;;;;;;9.64;80.51;97820.06;5094422;28;19920;-64
2023/03/27 07:04:26;;;;;;;;;;;;;;;9.70;80.89;97812.25;5094682;28;20022;-64
2023/03/27 07:07:18;;;;;;;;;;;;;;;9.77;80.47;97809.50;5094769;28;19932;-65
2023/03/27 07:09:48;;;;;;;;;;;;;;;9.84;80.20;97810.16;5092804;28;20408;-65
2023/03/27 07:12:22;;;;;;;;;;;;;;;9.87;79.84;97815.19;5093153;28;19928;-64
2023/03/27 07:14:50;;;;;;;;;;;;;;;9.88;79.76;97821.97;5092697;28;19927;-65
2023/03/27 07:17:19;;;;;;;;;;;;;;;9.92;79.27;97820.97;5094012;28;19920;-65
2023/03/27 07:19:53;;;;;;;;;;;;;;;9.96;79.00;97820.00;5093970;28;20358;-65
2023/03/27 07:22:26;;;;;;;;;;;;;;;10.02;79.07;97819.84;5094296;28;19920;-64
2023/03/27 07:24:57;;;;;;;;;;;;;;;10.03;79.04;97821.50;5094037;28;19982;-65
2023/03/27 07:27:27;;;;;;;;;;;;;;;10.08;78.57;97817.13;5101435;28;19920;-65
2023/03/27 07:30:00;;;;;;;;;;;;;;;10.12;77.99;97821.28;5093850;28;19927;-65
2023/03/27 07:32:31;;;;;;;;;;;;;;;10.16;78.16;97816.94;5093214;28;19927;-67
2023/03/27 07:35:07;;;;;;;;;;;;;;;10.16;77.82;97820.31;5102573;28;19920;-65
2023/03/27 07:37:57;;;;;;;;;;;;;;;10.23;76.99;97824.34;5066162;28;20257;-64
2023/03/27 07:40:37;;;;;;;;;;;;;;;10.31;77.03;97827.53;5098122;28;20411;-66
2023/03/27 07:43:34;;;;;;;;;;;;;;;10.41;76.37;97834.03;5081737;28;19958;-65
2023/03/27 07:46:04;;;;;;;;;;;;;;;10.45;75.91;97830.50;5096426;28;19920;-65
2023/03/27 07:48:34;;;;;;;;;;;;;;;10.50;75.73;97828.66;5097234;28;19920;-65
2023/03/27 07:51:03;;;;;;;;;;;;;;;10.56;75.24;97842.91;5096541;28;19920;-65
2023/03/27 07:53:43;;;;;;;;;;;;;;;10.60;75.08;97837.69;5096441;28;19919;-65
2023/03/27 07:56:25;;;;;;;;;;;;;;;10.65;74.24;97833.25;5097951;28;19920;-65
2023/03/27 07:59:04;;;;;;;;;;;;;;;10.70;73.98;97841.59;5097752;28;20296;-65
2023/03/27 08:01:33;;;;;;;;;;;;;;;10.73;73.80;97833.88;5097906;28;19959;-64
2023/03/27 08:04:04;;;;;;;;;;;;;;;10.75;73.24;97844.00;5097395;28;19931;-64
2023/03/27 08:06:35;;;;;;;;;;;;;;;10.76;72.86;97835.50;5097483;28;19919;-64
2023/03/27 08:09:09;;;;;;;;;;;;;;;10.75;72.12;97834.66;5098006;28;20430;-65
2023/03/27 08:11:39;;;;;;;;;;;;;;;10.83;71.71;97831.88;5103412;28;19927;-65
2023/03/27 08:14:08;;;;;;;;;;;;;;;10.86;71.73;97836.88;5105887;28;19924;-65
2023/03/27 08:16:39;;;;;;;;;;;;;;;10.89;71.54;97838.50;5106990;28;19927;-64
2023/03/27 08:19:10;;;;;;;;;;;;;;;10.86;71.98;97836.03;5107055;28;20006;-66
2023/03/27 08:21:43;;;;;;;;;;;;;;;10.91;72.09;97836.72;5107739;28;19924;-65
2023/03/27 08:24:13;;;;;;;;;;;;;;;10.95;71.80;97831.47;5099414;28;19927;-64
2023/03/27 08:26:53;;;;;;;;;;;;;;;10.99;72.03;97839.88;5097101;28;20366;-64
2023/03/27 08:29:23;;;;;;;;;;;;;;;10.98;71.41;97835.66;5097143;28;19924;-64
2023/03/27 08:31:51;;;;;;;;;;;;;;;10.96;70.72;97832.31;5096877;28;19974;-65
2023/03/27 08:34:20;;;;;;;;;;;;;;;10.97;71.11;97837.38;5103892;28;19923;-64
2023/03/27 08:36:53;;;;;;;;;;;;;;;10.99;70.84;97837.34;5105345;28;20011;-64
2023/03/27 08:39:29;;;;;;;;;;;;;;;11.00;70.69;97844.94;5117227;28;19931;-64
2023/03/27 08:42:04;;;;;;;;;;;;;;;11.04;70.69;97840.53;5103761;28;20416;-64
2023/03/27 08:44:35;;;;;;;;;;;;;;;11.03;70.60;97849.09;5101173;28;19931;-64
2023/03/27 08:47:14;;;;;;;;;;;;;;;10.97;70.60;97849.28;5106459;28;20002;-64
2023/03/27 08:49:51;;;;;;;;;;;;;;;10.96;70.35;97850.19;5107102;28;19967;-64
2023/03/27 08:52:26;;;;;;;;;;;;;;;10.97;70.66;97846.72;5105350;28;19920;-64
2023/03/27 08:54:59;;;;;;;;;;;;;;;10.97;70.22;97849.28;5111014;27;19926;-64
2023/03/27 08:57:36;;;;;;;;;;;;;;;10.96;69.85;97853.56;5115858;28;19965;-64
2023/03/27 09:00:15;;;;;;;;;;;;;;;10.94;70.05;97855.31;5116080;28;20297;-64
2023/03/27 09:02:47;;;;;;;;;;;;;;;10.96;69.64;97847.63;5117062;28;20369;-64
2023/03/27 09:05:18;;;;;;;;;;;;;;;10.91;69.59;97854.59;5117328;28;19919;-64
2023/03/27 09:07:48;;;;;;;;;;;;;;;10.89;69.87;97857.22;5114040;28;20002;-65
2023/03/27 09:10:30;;;;;;;;;;;;;;;10.91;69.84;97854.59;5096358;28;19927;-64
2023/03/27 09:13:06;;;;;;;;;;;;;;;10.89;70.01;97856.38;5111778;28;19965;-64
2023/03/27 09:15:39;;;;;;;;;;;;;;;10.90;70.14;97868.22;5117012;28;19926;-64
2023/03/27 09:18:11;;;;;;;;;;;;;;;10.84;70.18;97863.31;5115687;28;19982;-64
2023/03/27 09:20:43;;;;;;;;;;;;;;;10.82;69.76;97855.72;5115369;28;19959;-64
2023/03/27 09:23:15;;;;;;;;;;;;;;;10.76;69.72;97856.75;5115301;28;19959;-65
2023/03/27 09:26:02;;;;;;;;;;;;;;;10.77;69.62;97863.50;5116438;28;20390;-64
2023/03/27 09:29:00;;;;;;;;;;;;;;;10.76;69.84;97864.41;5092586;28;19919;-64
2023/03/27 09:31:35;;;;;;;;;;;;;;;10.70;69.53;97871.41;5116238;28;19919;-64
2023/03/27 09:34:12;;;;;;;;;;;;;;;10.63;69.89;97864.78;5116159;28;19920;-65
2023/03/27 09:36:41;;;;;;;;;;;;;;;10.69;69.79;97875.69;5115273;28;20373;-64
2023/03/27 09:39:15;;;;;;;;;;;;;;;10.71;69.58;97873.06;5114792;28;20432;-63
2023/03/27 09:41:48;;;;;;;;;;;;;;;10.72;69.22;97870.44;5101790;28;19927;-63
2023/03/27 09:44:24;;;;;;;;;;;;;;;10.75;69.13;97874.63;5102121;28;19924;-63
2023/03/27 09:47:01;;;;;;;;;;;;;;;10.81;69.13;97884.66;5104108;28;19926;-64
2023/03/27 09:49:32;;;;;;;;;;;;;;;10.85;68.74;97881.13;5104317;28;19920;-65
2023/03/27 09:52:06;;;;;;;;;;;;;;;10.87;68.29;97886.22;5104963;28;19966;-65
2023/03/27 09:54:51;;;;;;;;;;;;;;;10.95;68.20;97886.78;5104125;28;19919;-65
2023/03/27 09:57:32;;;;;;;;;;;;;;;11.02;68.08;97893.38;5095202;28;19977;-64
2023/03/27 10:00:12;;;;;;;;;;;;;;;11.03;67.93;97907.81;5094353;28;20255;-66
2023/03/27 10:02:59;;;;;;;;;;;;;;;10.98;67.81;97914.78;5094024;28;19920;-65
2023/03/27 10:05:29;;;;;;;;;;;;;;;10.91;67.36;97915.84;5094390;28;19920;-64
2023/03/27 10:07:58;;;;;;;;;;;;;;;10.95;67.89;97927.63;5094398;28;19999;-65
2023/03/27 10:10:44;;;;;;;;;;;;;;;10.94;67.93;97941.28;5094966;28;19920;-65
2023/03/27 10:13:28;;;;;;;;;;;;;;;10.84;67.95;97939.88;5095030;28;19995;-66
2023/03/27 10:16:00;;;;;;;;;;;;;;;10.78;68.09;97961.28;5093789;28;19931;-64
2023/03/27 10:18:41;;;;;;;;;;;;;;;10.63;67.86;97956.63;5094452;28;20331;-64
2023/03/27 10:21:19;;;;;;;;;;;;;;;10.44;67.33;97961.41;5095315;28;19942;-63
2023/03/27 10:23:50;;;;;;;;;;;;;;;10.19;66.21;97970.63;5092781;28;19920;-66
2023/03/27 10:26:37;;;;;;;;;;;;;;;9.97;65.77;98000.06;5094576;28;20338;-64
2023/03/27 10:29:21;;;;;;;;;;;;;;;9.71;64.39;97999.88;5095048;28;19927;-67
2023/03/27 10:31:51;;;;;;;;;;;;;;;9.48;63.35;98019.97;5093943;28;19926;-66
2023/03/27 10:34:33;;;;;;;;;;;;;;;9.30;64.13;98024.59;5094541;28;20011;-65
2023/03/27 10:37:27;;;;;;;;;;;;;;;9.23;63.61;98040.88;5090089;28;19967;-65
2023/03/27 10:40:16;;;;;;;;;;;;;;;9.13;63.22;98069.94;5094487;28;19920;-64
2023/03/27 10:42:48;;;;;;;;;;;;;;;8.98;64.08;98077.88;5094816;28;19969;-67
2023/03/27 10:45:19;;;;;;;;;;;;;;;8.94;63.73;98083.91;5093858;28;20018;-66
2023/03/27 10:47:53;;;;;;;;;;;;;;;8.91;63.79;98083.13;5095227;28;19924;-66
2023/03/27 10:50:26;;;;;;;;;;;;;;;8.90;63.10;98095.00;5105008;28;20006;-65
2023/03/27 10:53:00;;;;;;;;;;;;;;;8.76;62.56;98107.13;5103400;28;19928;-67
2023/03/27 10:55:47;;;;;;;;;;;;;;;8.59;62.44;98097.28;5102169;28;20155;-66
2023/03/27 10:58:24;;;;;;;;;;;;;;;8.54;62.21;98098.25;5103540;28;19965;-67
2023/03/27 11:00:58;;;;;;;;;;;;;;;8.50;61.84;98094.06;5101927;28;20041;-65
2023/03/27 11:03:32;;;;;;;;;;;;;;;8.50;61.76;98101.69;5084924;28;19924;-67
2023/03/27 11:06:07;;;;;;;;;;;;;;;8.42;61.86;98113.72;5103320;28;19969;-65
2023/03/27 11:08:46;;;;;;;;;;;;;;;8.37;61.25;98130.75;5104109;28;19920;-66
2023/03/27 11:11:19;;;;;;;;;;;;;;;8.30;61.47;98129.19;5103089;28;19923;-65
2023/03/27 11:13:52;;;;;;;;;;;;;;;8.35;61.82;98133.28;5102729;28;19927;-65
2023/03/27 11:16:23;;;;;;;;;;;;;;;8.37;61.82;98158.72;5102622;28;19933;-65
2023/03/27 11:19:12;;;;;;;;;;;;;;;8.30;60.70;98152.88;5104276;28;20346;-66
2023/03/27 11:22:03;;;;;;;;;;;;;;;8.17;60.22;98168.31;5103459;28;19933;-65
2023/03/27 11:24:38;;;;;;;;;;;;;;;8.08;61.22;98182.84;5104227;28;19920;-66
2023/03/27 11:27:14;;;;;;;;;;;;;;;7.98;60.94;98196.53;5102942;28;19926;-70
2023/03/27 11:29:47;;;;;;;;;;;;;;;7.94;61.12;98197.44;5092942;28;19920;-67
2023/03/27 11:32:20;;;;;;;;;;;;;;;7.85;60.29;98189.94;5092056;28;19924;-67
2023/03/27 11:34:58;;;;;;;;;;;;;;;7.65;61.05;98204.63;5094504;28;19986;-68
2023/03/27 11:37:45;;;;;;;;;;;;;;;7.57;60.91;98226.72;5094063;28;20282;-68
2023/03/27 11:40:18;;;;;;;;;;;;;;;7.55;60.82;98208.13;5094396;28;19926;-67
2023/03/27 11:42:51;;;;;;;;;;;;;;;7.55;61.40;98218.28;5093148;28;19924;-68
2023/03/27 11:45:23;;;;;;;;;;;;;;;7.45;60.86;98226.88;5092440;28;19920;-69
2023/03/27 11:48:04;;;;;;;;;;;;;;;7.36;61.34;98217.69;5099054;28;20324;-67
2023/03/27 11:50:45;;;;;;;;;;;;;;;7.39;61.41;98239.63;5093073;28;19919;-67
2023/03/27 11:53:24;;;;;;;;;;;;;;;7.38;61.56;98254.03;5091942;28;19920;-68
2023/03/27 11:56:21;;;;;;;;;;;;;;;7.33;61.75;98277.75;5086858;28;19951;-67
2023/03/27 11:59:07;;;;;;;;;;;;;;;7.27;61.66;98303.22;5099868;28;19926;-68
2023/03/27 12:01:40;;;;;;;;;;;;;;;7.19;61.90;98312.56;5096764;28;20354;-70
2023/03/27 12:04:19;;;;;;;;;;;;;;;7.11;62.04;98335.47;5112713;28;19977;-68
2023/03/27 12:07:05;;;;;;;;;;;;;;;6.96;62.43;98367.75;5093521;28;20283;-67
2023/03/27 12:09:51;;;;;;;;;;;;;;;6.81;62.88;98367.84;5101990;28;19919;-67
2023/03/27 12:12:38;;;;;;;;;;;;;;;6.72;63.28;98379.72;5113793;28;20353;-68
2023/03/27 12:15:22;;;;;;;;;;;;;;;6.66;63.24;98384.84;5113844;28;19919;-67
2023/03/27 12:17:57;;;;;;;;;;;;;;;6.61;63.52;98396.72;5113834;28;19919;-65
2023/03/27 12:20:40;;;;;;;;;;;;;;;6.53;62.72;98398.44;5098372;28;19923;-69
2023/03/27 12:23:27;;;;;;;;;;;;;;;6.36;62.98;98400.19;5105556;28;20403;-65
2023/03/27 12:26:32;;;;;;;;;;;;;;;6.33;63.17;98394.31;5095656;28;19923;-68
2023/03/27 12:29:28;;;;;;;;;;;;;;;6.36;62.35;98400.19;5105517;28;19920;-68
2023/03/27 12:32:16;;;;;;;;;;;;;;;6.40;62.21;98396.81;5103664;28;19920;-66
2023/03/27 12:34:52;;;;;;;;;;;;;;;6.35;61.81;98418.81;5114366;28;20036;-69
2023/03/27 12:37:26;;;;;;;;;;;;;;;6.26;61.46;98410.41;5117376;28;20366;-66
2023/03/27 12:39:57;;;;;;;;;;;;;;;6.28;61.53;98422.22;5115461;28;19984;-69
2023/03/27 12:42:39;;;;;;;;;;;;;;;6.37;61.06;98444.97;5116714;28;19926;-69
2023/03/27 12:45:16;;;;;;;;;;;;;;;6.31;60.60;98446.69;5116051;28;19920;-67
2023/03/27 12:48:00;;;;;;;;;;;;;;;6.24;60.76;98445.84;5116117;28;19923;-68
2023/03/27 12:50:35;;;;;;;;;;;;;;;6.24;60.41;98455.16;5117307;28;19920;-66
2023/03/27 12:53:06;;;;;;;;;;;;;;;6.20;60.17;98488.94;5115104;28;19981;-67
2023/03/27 12:55:39;;;;;;;;;;;;;;;6.15;59.84;98495.69;5113977;28;19955;-69
2023/03/27 12:58:31;;;;;;;;;;;;;;;6.02;59.72;98494.91;5107535;28;20332;-65
2023/03/27 13:01:12;;;;;;;;;;;;;;;6.00;59.36;98506.69;5107022;28;19944;-68
2023/03/27 13:04:11;;;;;;;;;;;;;;;5.89;58.97;98521.91;5107049;28;19927;-66
2023/03/27 13:06:49;;;;;;;;;;;;;;;5.91;59.32;98526.97;5106370;28;20002;-66
2023/03/27 13:09:27;;;;;;;;;;;;;;;5.93;59.19;98548.06;5104648;28;19927;-66
2023/03/27 13:12:13;;;;;;;;;;;;;;;5.85;58.72;98557.38;5106480;28;20259;-66
2023/03/27 13:14:50;;;;;;;;;;;;;;;5.81;58.72;98550.56;5105262;28;19990;-66
2023/03/27 13:17:37;;;;;;;;;;;;;;;5.81;58.61;98566.59;5109154;28;20324;-67
2023/03/27 13:20:15;;;;;;;;;;;;;;;5.76;58.43;98568.28;5115850;28;20360;-67
2023/03/27 13:22:56;;;;;;;;;;;;;;;5.75;58.50;98565.78;5115382;28;19920;-65
2023/03/27 13:25:39;;;;;;;;;;;;;;;5.79;58.45;98583.47;5098387;28;19923;-67
2023/03/27 13:28:20;;;;;;;;;;;;;;;5.79;58.02;98583.47;5095191;28;19927;-70
2023/03/27 13:31:00;;;;;;;;;;;;;;;5.69;57.73;98606.25;5094952;28;19955;-68
2023/03/27 13:33:40;;;;;;;;;;;;;;;5.64;58.00;98607.94;5095527;28;19920;-66
2023/03/27 13:36:13;;;;;;;;;;;;;;;5.68;58.04;98613.03;5096184;28;20286;-67
2023/03/27 13:38:53;;;;;;;;;;;;;;;5.66;58.16;98616.38;5077809;28;20007;-66